Time;durP1;ratioP1;P1;durP2;ratioP2;P2;SDS_P1;SDS_P2;PMS_P1;PMS_P2;Temp;Humidity;BMP_temperature;BMP_pressure;BME280_temperature;BME280_humidity;BME280_pressure;Samples;Min_cycle;Max_cycle;Signal;HPM_P1;HPM_P2
2024/01/25 00:00:32;;;;;;;79.50;10.35;;;;;;;10.03;100.00;102879.13;5290971;27;20143;-73
2024/01/25 00:03:03;;;;;;;81.20;9.32;;;;;;;10.04;100.00;102891.59;5292882;27;20072;-73
2024/01/25 00:05:33;;;;;;;64.15;10.05;;;;;;;10.02;100.00;102881.94;5290520;27;20031;-73
2024/01/25 00:08:04;;;;;;;66.68;8.48;;;;;;;9.93;100.00;102886.16;5290677;27;20029;-73
2024/01/25 00:10:35;;;;;;;69.72;9.27;;;;;;;9.91;100.00;102885.41;5287950;27;20049;-73
2024/01/25 00:13:05;;;;;;;68.72;9.00;;;;;;;9.87;100.00;102883.91;5290307;27;20027;-73
2024/01/25 00:15:36;;;;;;;62.78;9.45;;;;;;;9.76;100.00;102882.03;5290227;27;20048;-73
2024/01/25 00:18:07;;;;;;;62.40;9.65;;;;;;;9.72;100.00;102887.72;5292296;27;20027;-73
2024/01/25 00:20:37;;;;;;;67.65;9.38;;;;;;;9.68;100.00;102888.91;5290592;27;20085;-73
2024/01/25 00:23:08;;;;;;;64.07;8.75;;;;;;;9.60;100.00;102893.00;5292080;27;20149;-72
2024/01/25 00:25:38;;;;;;;74.03;11.90;;;;;;;9.57;100.00;102901.25;5290161;27;20034;-73
2024/01/25 00:28:09;;;;;;;70.63;9.60;;;;;;;9.52;100.00;102906.09;5289589;27;20496;-73
2024/01/25 00:30:39;;;;;;;68.90;10.10;;;;;;;9.45;100.00;102904.81;5290249;27;20035;-73
2024/01/25 00:33:10;;;;;;;63.80;8.88;;;;;;;9.43;100.00;102905.88;5288785;27;20047;-73
2024/01/25 00:35:41;;;;;;;56.58;9.07;;;;;;;9.41;100.00;102906.00;5289149;27;20089;-72
2024/01/25 00:38:11;;;;;;;68.80;9.15;;;;;;;9.36;100.00;102886.72;5291598;27;20019;-72
2024/01/25 00:40:42;;;;;;;64.72;8.80;;;;;;;9.32;100.00;102887.88;5289440;27;20047;-73
2024/01/25 00:43:14;;;;;;;78.60;10.45;;;;;;;9.25;100.00;102881.25;5291518;27;20019;-73
2024/01/25 00:45:45;;;;;;;73.15;9.57;;;;;;;9.24;100.00;102899.16;5288505;27;20032;-73
2024/01/25 00:48:16;;;;;;;53.47;8.15;;;;;;;9.19;100.00;102911.16;5287937;27;20046;-73
2024/01/25 00:50:47;;;;;;;61.90;8.15;;;;;;;9.10;100.00;102909.97;5289195;27;20031;-73
2024/01/25 00:53:17;;;;;;;75.95;8.35;;;;;;;9.01;100.00;102907.94;5285809;28;20019;-73
2024/01/25 00:55:48;;;;;;;58.25;9.65;;;;;;;8.96;100.00;102913.59;5288286;27;20027;-72
2024/01/25 00:58:19;;;;;;;76.97;10.98;;;;;;;8.91;100.00;102907.69;5287175;27;20036;-73
2024/01/25 01:00:50;;;;;;;71.82;9.18;;;;;;;8.84;100.00;102905.56;5289516;27;20118;-73
2024/01/25 01:03:21;;;;;;;76.70;10.25;;;;;;;8.77;100.00;102903.28;5289179;27;20106;-73
2024/01/25 01:05:52;;;;;;;66.97;9.48;;;;;;;8.73;100.00;102917.81;5289105;27;20114;-72
2024/01/25 01:08:22;;;;;;;67.38;9.30;;;;;;;8.66;100.00;102907.66;5287180;27;20080;-72
2024/01/25 01:10:53;;;;;;;79.25;9.60;;;;;;;8.63;100.00;102916.72;5289119;27;20080;-73
2024/01/25 01:13:23;;;;;;;78.88;9.32;;;;;;;8.62;100.00;102916.84;5286717;27;20031;-72
2024/01/25 01:15:54;;;;;;;76.18;9.48;;;;;;;8.62;100.00;102917.69;5287231;27;20034;-73
2024/01/25 01:18:24;;;;;;;66.50;8.43;;;;;;;8.58;100.00;102913.50;5284748;27;20387;-73
2024/01/25 01:20:55;;;;;;;69.13;9.15;;;;;;;8.59;100.00;102917.91;5287392;27;20030;-73
2024/01/25 01:23:25;;;;;;;71.15;9.05;;;;;;;8.55;100.00;102932.47;5284154;28;20388;-72
2024/01/25 01:25:56;;;;;;;72.68;11.35;;;;;;;8.46;100.00;102925.91;5286623;27;20033;-72
2024/01/25 01:28:26;;;;;;;70.55;9.85;;;;;;;8.43;100.00;102927.91;5286338;27;20073;-72
2024/01/25 01:30:57;;;;;;;70.60;10.50;;;;;;;8.41;100.00;102935.19;5291283;27;20385;-72
2024/01/25 01:33:27;;;;;;;71.57;8.73;;;;;;;8.32;100.00;102947.31;5281490;27;20027;-72
2024/01/25 01:35:58;;;;;;;81.40;8.82;;;;;;;8.26;100.00;102937.88;5281943;27;20366;-73
2024/01/25 01:38:28;;;;;;;66.57;9.20;;;;;;;8.20;100.00;102919.56;5281132;27;20023;-72
2024/01/25 01:40:59;;;;;;;74.68;10.93;;;;;;;8.13;100.00;102926.25;5285402;27;20057;-72
2024/01/25 01:43:29;;;;;;;91.63;11.18;;;;;;;8.14;100.00;102937.84;5286406;28;20027;-72
2024/01/25 01:46:06;;;;;;;66.57;8.98;;;;;;;8.17;100.00;102940.28;5286750;27;20027;-73
2024/01/25 01:48:39;;;;;;;79.38;11.57;;;;;;;8.09;100.00;102931.94;5287771;27;20080;-73
2024/01/25 01:51:10;;;;;;;75.70;9.15;;;;;;;8.04;100.00;102926.88;5286464;27;20023;-73
2024/01/25 01:53:40;;;;;;;78.47;9.35;;;;;;;8.00;100.00;102941.38;5284839;27;20024;-72
2024/01/25 01:56:11;;;;;;;64.00;9.90;;;;;;;7.93;100.00;102946.28;5282304;28;20114;-73
2024/01/25 01:58:42;;;;;;;85.50;9.48;;;;;;;7.85;100.00;102932.53;5283362;27;20081;-73
2024/01/25 02:01:13;;;;;;;77.85;9.82;;;;;;;7.84;100.00;102930.81;5285168;28;20023;-72
2024/01/25 02:03:43;;;;;;;59.15;8.50;;;;;;;7.79;100.00;102931.09;5288079;28;20058;-72
2024/01/25 02:06:14;;;;;;;77.05;9.98;;;;;;;7.78;100.00;102924.06;5285573;28;20040;-73
2024/01/25 02:08:45;;;;;;;73.03;10.20;;;;;;;7.80;100.00;102934.63;5287275;28;20023;-72
2024/01/25 02:11:16;;;;;;;78.85;10.48;;;;;;;7.76;100.00;102930.44;5283906;28;20031;-73
2024/01/25 02:13:47;;;;;;;80.88;11.23;;;;;;;7.73;100.00;102917.25;5286755;28;20046;-73
2024/01/25 02:16:18;;;;;;;86.18;11.13;;;;;;;7.66;100.00;102921.28;5286079;28;20016;-73
2024/01/25 02:18:49;;;;;;;74.88;10.23;;;;;;;7.63;100.00;102929.47;5285330;28;20034;-73
2024/01/25 02:21:20;;;;;;;72.55;9.85;;;;;;;7.59;100.00;102941.34;5285642;27;20404;-73
2024/01/25 02:23:50;;;;;;;83.78;11.88;;;;;;;7.55;100.00;102940.66;5285161;28;20027;-73
2024/01/25 02:26:21;;;;;;;75.22;8.32;;;;;;;7.49;100.00;102936.56;5285778;27;20434;-72
2024/01/25 02:28:51;;;;;;;69.28;9.98;;;;;;;7.46;100.00;102933.22;5286639;28;20027;-72
2024/01/25 02:31:22;;;;;;;82.03;9.60;;;;;;;7.42;100.00;102945.91;5285786;27;20020;-73
2024/01/25 02:33:52;;;;;;;72.57;9.95;;;;;;;7.38;100.00;102949.72;5286500;28;20024;-72
2024/01/25 02:36:23;;;;;;;79.15;10.77;;;;;;;7.34;100.00;102945.53;5289603;27;20007;-73
2024/01/25 02:38:53;;;;;;;73.90;10.50;;;;;;;7.26;100.00;102939.78;5289972;27;20027;-72
2024/01/25 02:41:24;;;;;;;89.38;11.15;;;;;;;7.21;100.00;102945.41;5290626;27;20366;-72
2024/01/25 02:43:54;;;;;;;85.68;10.00;;;;;;;7.20;100.00;102948.19;5290191;27;20626;-72
2024/01/25 02:46:25;;;;;;;73.80;10.35;;;;;;;7.14;100.00;102948.56;5288887;27;20020;-73
2024/01/25 02:48:56;;;;;;;76.30;10.43;;;;;;;7.13;100.00;102939.69;5289546;27;20026;-72
2024/01/25 02:51:26;;;;;;;78.80;10.23;;;;;;;7.13;100.00;102945.03;5290024;27;20028;-73
2024/01/25 02:53:57;;;;;;;68.25;9.88;;;;;;;7.13;100.00;102939.69;5289836;27;20031;-73
2024/01/25 02:56:33;;;;;;;81.47;9.70;;;;;;;7.18;100.00;102939.41;5288651;27;20023;-73
2024/01/25 02:59:03;;;;;;;61.55;8.95;;;;;;;7.20;100.00;102946.34;5288753;27;20023;-72
2024/01/25 03:01:41;;;;;;;74.15;8.15;;;;;;;7.19;100.00;102935.78;5288006;28;20050;-72
2024/01/25 03:04:12;;;;;;;65.45;8.55;;;;;;;7.12;100.00;102945.09;5289194;27;20030;-73
2024/01/25 03:06:42;;;;;;;85.70;10.27;;;;;;;7.09;100.00;102956.84;5287713;28;20020;-73
2024/01/25 03:09:13;;;;;;;53.58;8.75;;;;;;;7.04;100.00;102958.91;5287987;27;20077;-73
2024/01/25 03:11:43;;;;;;;79.13;10.15;;;;;;;7.07;100.00;102956.03;5284010;27;20088;-72
2024/01/25 03:14:14;;;;;;;75.43;9.77;;;;;;;6.96;100.00;102947.84;5278035;27;20047;-73
2024/01/25 03:16:45;;;;;;;82.75;9.55;;;;;;;6.88;100.00;102958.97;5275278;27;20073;-72
2024/01/25 03:19:15;;;;;;;59.65;8.55;;;;;;;6.79;100.00;102958.66;5284441;27;20027;-72
2024/01/25 03:21:46;;;;;;;49.95;7.50;;;;;;;6.70;100.00;102960.03;5288715;27;20019;-72
2024/01/25 03:24:18;;;;;;;51.30;7.38;;;;;;;6.58;100.00;102966.09;5282980;27;20019;-72
2024/01/25 03:26:49;;;;;;;61.03;8.75;;;;;;;6.47;100.00;102967.56;5287373;28;20032;-72
2024/01/25 03:29:20;;;;;;;44.38;5.72;;;;;;;6.40;100.00;102960.88;5287868;27;20540;-72
2024/01/25 03:31:50;;;;;;;51.60;7.20;;;;;;;6.32;100.00;102959.56;5287996;28;20027;-73
2024/01/25 03:34:21;;;;;;;49.63;6.82;;;;;;;6.20;100.00;102969.13;5289512;27;20028;-73
2024/01/25 03:36:53;;;;;;;58.28;7.13;;;;;;;6.09;100.00;102974.22;5287335;27;20026;-72
2024/01/25 03:39:24;;;;;;;37.22;5.88;;;;;;;6.02;100.00;102981.66;5285330;27;20038;-72
2024/01/25 03:41:54;;;;;;;31.80;4.82;;;;;;;5.93;100.00;102966.22;5287634;27;20480;-73
2024/01/25 03:44:24;;;;;;;31.60;5.72;;;;;;;5.81;100.00;102965.03;5282262;27;20094;-72
2024/01/25 03:46:55;;;;;;;58.05;8.68;;;;;;;5.72;100.00;102965.53;5284370;27;20507;-72
2024/01/25 03:49:25;;;;;;;57.42;8.02;;;;;;;5.69;100.00;102971.88;5289914;27;20024;-73
2024/01/25 03:51:56;;;;;;;59.15;7.88;;;;;;;5.69;100.00;102979.03;5287227;28;20039;-72
2024/01/25 03:54:26;;;;;;;38.22;7.72;;;;;;;5.69;100.00;102971.88;5287899;27;20049;-72
2024/01/25 03:56:57;;;;;;;95.90;7.70;;;;;;;5.57;100.00;102971.69;5287243;27;20385;-72
2024/01/25 03:59:27;;;;;;;45.10;6.70;;;;;;;5.43;100.00;102965.31;5287422;27;20083;-72
2024/01/25 04:01:58;;;;;;;58.63;8.70;;;;;;;5.38;100.00;102972.66;5286739;27;20027;-73
2024/01/25 04:04:28;;;;;;;59.55;6.72;;;;;;;5.38;100.00;102977.13;5287897;27;20476;-72
2024/01/25 04:06:59;;;;;;;52.97;6.22;;;;;;;5.38;100.00;102979.78;5286433;27;20027;-73
2024/01/25 04:09:29;;;;;;;40.30;5.85;;;;;;;5.40;100.00;102980.56;5287483;27;20054;-72
2024/01/25 04:12:00;;;;;;;54.78;6.57;;;;;;;5.45;100.00;102973.19;5280962;27;20500;-72
2024/01/25 04:14:30;;;;;;;53.72;7.25;;;;;;;5.49;100.00;102960.59;5287484;27;20024;-73
2024/01/25 04:17:01;;;;;;;65.15;8.23;;;;;;;5.45;100.00;102966.06;5286540;27;20133;-72
2024/01/25 04:19:31;;;;;;;58.03;8.40;;;;;;;5.43;100.00;102973.28;5285663;27;20416;-72
2024/01/25 04:22:02;;;;;;;46.25;6.55;;;;;;;5.43;100.00;102983.06;5285502;27;20026;-72
2024/01/25 04:24:33;;;;;;;53.28;6.90;;;;;;;5.43;100.00;102980.41;5286262;27;20620;-73
2024/01/25 04:27:04;;;;;;;50.00;6.35;;;;;;;5.40;100.00;102969.91;5279251;28;20054;-72
2024/01/25 04:29:38;;;;;;;31.48;6.05;;;;;;;5.30;100.00;102974.88;5286720;28;20031;-72
2024/01/25 04:32:09;;;;;;;55.83;6.20;;;;;;;5.20;100.00;102974.47;5286290;28;20031;-72
2024/01/25 04:34:40;;;;;;;53.25;6.25;;;;;;;5.11;100.00;102977.59;5286907;28;20035;-73
2024/01/25 04:37:10;;;;;;;50.50;5.72;;;;;;;5.01;100.00;102978.16;5285364;27;20016;-73
2024/01/25 04:39:40;;;;;;;44.42;5.68;;;;;;;4.96;100.00;102969.56;5280479;28;20031;-73
2024/01/25 04:42:11;;;;;;;51.30;6.80;;;;;;;4.87;100.00;102961.13;5285883;27;20023;-73
2024/01/25 04:44:42;;;;;;;32.22;4.60;;;;;;;4.76;100.00;102958.13;5286395;28;20370;-73
2024/01/25 04:47:12;;;;;;;39.90;5.45;;;;;;;4.69;100.00;102962.03;5283113;28;20393;-73
2024/01/25 04:49:42;;;;;;;28.35;4.53;;;;;;;4.59;100.00;102960.78;5286421;28;20027;-73
2024/01/25 04:52:13;;;;;;;48.95;6.68;;;;;;;4.68;100.00;102955.00;5285106;28;20030;-73
2024/01/25 04:54:43;;;;;;;78.55;9.65;;;;;;;4.72;100.00;102955.69;5286479;28;20092;-73
2024/01/25 04:57:14;;;;;;;71.70;9.85;;;;;;;4.73;100.00;102952.97;5288735;27;20393;-73
2024/01/25 04:59:44;;;;;;;60.75;6.90;;;;;;;4.70;100.00;102953.13;5287816;27;20515;-73
2024/01/25 05:02:15;;;;;;;56.80;8.50;;;;;;;4.68;100.00;102962.97;5289298;27;20031;-73
2024/01/25 05:04:45;;;;;;;43.40;6.63;;;;;;;4.60;100.00;102966.00;5288040;27;20416;-73
2024/01/25 05:07:16;;;;;;;43.20;9.27;;;;;;;4.51;100.00;102963.78;5288366;27;20023;-73
2024/01/25 05:09:46;;;;;;;50.45;5.68;;;;;;;4.44;100.00;102954.41;5289233;27;20038;-73
2024/01/25 05:12:17;;;;;;;36.17;5.88;;;;;;;4.27;100.00;102963.22;5285109;28;20027;-73
2024/01/25 05:14:48;;;;;;;44.53;6.40;;;;;;;4.15;100.00;102959.34;5287681;27;20028;-73
2024/01/25 05:17:18;;;;;;;28.23;5.75;;;;;;;4.10;100.00;102961.34;5281171;27;20068;-72
2024/01/25 05:19:49;;;;;;;40.15;5.85;;;;;;;4.04;100.00;102963.44;5281964;27;20532;-72
2024/01/25 05:22:21;;;;;;;38.75;6.30;;;;;;;3.99;100.00;102958.34;5279552;27;20357;-72
2024/01/25 05:24:52;;;;;;;39.75;6.10;;;;;;;3.96;100.00;102955.81;5287480;27;20027;-73
2024/01/25 05:27:23;;;;;;;40.75;5.55;;;;;;;3.89;100.00;102946.44;5289123;27;20536;-73
2024/01/25 05:29:53;;;;;;;25.73;4.00;;;;;;;3.88;100.00;102966.81;5287046;27;20512;-73
2024/01/25 05:32:24;;;;;;;18.98;3.90;;;;;;;3.86;100.00;102971.31;5288114;27;20022;-72
2024/01/25 05:34:54;;;;;;;28.23;4.40;;;;;;;3.85;100.00;102969.59;5287257;27;20031;-73
2024/01/25 05:37:25;;;;;;;21.90;4.22;;;;;;;3.87;100.00;102967.75;5285373;27;20830;-73
2024/01/25 05:39:55;;;;;;;33.03;3.97;;;;;;;3.87;100.00;102970.41;5288419;27;20038;-73
2024/01/25 05:42:26;;;;;;;14.45;2.67;;;;;;;3.86;100.00;102965.16;5287460;27;20020;-73
2024/01/25 05:44:56;;;;;;;20.60;3.33;;;;;;;3.87;100.00;102961.59;5286610;27;20100;-73
2024/01/25 05:47:27;;;;;;;23.85;3.65;;;;;;;3.84;100.00;102967.03;5287268;27;20026;-73
2024/01/25 05:49:57;;;;;;;27.00;4.35;;;;;;;3.77;100.00;102971.75;5287594;27;20041;-73
2024/01/25 05:52:29;;;;;;;25.15;4.50;;;;;;;3.70;100.00;102975.63;5286563;27;20024;-73
2024/01/25 05:54:59;;;;;;;57.92;9.02;;;;;;;3.63;100.00;102977.69;5286630;27;20431;-73
2024/01/25 05:57:29;;;;;;;26.95;4.47;;;;;;;3.60;100.00;102983.13;5285606;27;20027;-73
2024/01/25 06:00:00;;;;;;;38.97;5.07;;;;;;;3.57;100.00;102990.38;5280788;27;20028;-73
2024/01/25 06:02:31;;;;;;;35.67;5.43;;;;;;;3.56;100.00;102988.63;5286540;28;20043;-73
2024/01/25 06:05:01;;;;;;;24.95;4.72;;;;;;;3.52;100.00;102987.94;5278744;28;20447;-72
2024/01/25 06:07:32;;;;;;;35.88;5.35;;;;;;;3.50;100.00;102984.47;5285329;27;20054;-73
2024/01/25 06:10:03;;;;;;;39.70;5.43;;;;;;;3.46;100.00;102988.19;5286461;28;20019;-72
2024/01/25 06:12:34;;;;;;;38.95;7.18;;;;;;;3.45;100.00;102975.00;5284914;28;20041;-73
2024/01/25 06:15:05;;;;;;;39.72;6.75;;;;;;;3.48;100.00;102978.38;5285374;28;20137;-72
2024/01/25 06:17:35;;;;;;;50.60;10.90;;;;;;;3.58;100.00;102973.53;5287226;27;20032;-72
2024/01/25 06:20:06;;;;;;;47.83;8.68;;;;;;;3.62;100.00;102973.31;5285481;28;20028;-72
2024/01/25 06:22:37;;;;;;;48.25;8.38;;;;;;;3.69;100.00;102978.34;5286467;27;20028;-72
2024/01/25 06:25:08;;;;;;;71.05;7.22;;;;;;;3.72;100.00;102981.72;5288174;28;20028;-72
2024/01/25 06:27:39;;;;;;;73.72;9.55;;;;;;;3.81;100.00;102983.09;5279326;28;20062;-73
2024/01/25 06:30:10;;;;;;;66.55;9.63;;;;;;;3.83;100.00;102982.09;5287606;28;20139;-73
2024/01/25 06:32:41;;;;;;;48.92;8.25;;;;;;;3.80;100.00;102982.22;5286075;28;20038;-72
2024/01/25 06:35:11;;;;;;;56.00;8.43;;;;;;;3.74;100.00;102979.84;5286856;28;20035;-73
2024/01/25 06:37:41;;;;;;;43.65;8.38;;;;;;;3.79;100.00;102993.78;5286639;28;20031;-73
2024/01/25 06:40:12;;;;;;;112.82;10.73;;;;;;;4.00;100.00;102988.41;5285192;28;20020;-73
2024/01/25 06:42:44;;;;;;;82.88;10.77;;;;;;;4.35;100.00;102989.41;5285304;28;20027;-73
2024/01/25 06:45:15;;;;;;;65.88;11.45;;;;;;;4.47;100.00;102991.50;5275323;28;20063;-73
2024/01/25 06:47:46;;;;;;;82.57;10.75;;;;;;;4.60;100.00;102989.94;5268516;28;20114;-72
2024/01/25 06:50:16;;;;;;;45.65;8.00;;;;;;;4.52;100.00;102984.16;5283397;28;20031;-73
2024/01/25 06:52:47;;;;;;;48.22;6.65;;;;;;;4.40;100.00;102982.94;5276154;28;20027;-72
2024/01/25 06:55:18;;;;;;;54.95;8.15;;;;;;;4.36;100.00;102988.47;5274901;28;20028;-73
2024/01/25 06:57:49;;;;;;;61.10;8.95;;;;;;;4.36;100.00;102989.31;5283693;28;20023;-73
2024/01/25 07:00:20;;;;;;;79.93;10.02;;;;;;;4.44;100.00;102993.44;5284081;28;20046;-73
2024/01/25 07:02:51;;;;;;;77.40;11.20;;;;;;;4.55;100.00;102999.94;5277346;28;20502;-73
2024/01/25 07:05:21;;;;;;;74.80;12.23;;;;;;;4.59;100.00;102992.69;5269572;28;20020;-72
2024/01/25 07:07:52;;;;;;;55.38;7.15;;;;;;;4.59;100.00;102996.19;5277354;28;20538;-73
2024/01/25 07:10:23;;;;;;;51.33;7.35;;;;;;;4.48;100.00;102993.19;5279454;28;20023;-72
2024/01/25 07:12:54;;;;;;;65.72;9.80;;;;;;;4.46;100.00;102997.72;5277075;28;20024;-73
2024/01/25 07:15:24;;;;;;;92.25;12.25;;;;;;;4.52;100.00;102996.56;5283423;27;20076;-73
2024/01/25 07:17:55;;;;;;;67.07;10.57;;;;;;;4.57;100.00;102989.25;5282411;28;20028;-73
2024/01/25 07:20:25;;;;;;;70.18;8.98;;;;;;;4.62;100.00;102977.44;5285872;27;20442;-73
2024/01/25 07:22:56;;;;;;;70.40;9.52;;;;;;;4.62;100.00;102979.25;5287403;27;20027;-72
2024/01/25 07:25:27;;;;;;;49.17;9.48;;;;;;;4.63;100.00;102996.91;5286327;28;20496;-73
2024/01/25 07:27:57;;;;;;;53.53;9.18;;;;;;;4.48;100.00;102989.69;5286989;27;20080;-73
2024/01/25 07:30:28;;;;;;;41.40;8.70;;;;;;;4.47;100.00;102988.81;5285681;28;20031;-73
2024/01/25 07:32:58;;;;;;;42.15;9.77;;;;;;;4.38;100.00;102976.84;5287311;27;20031;-73
2024/01/25 07:35:29;;;;;;;47.45;7.82;;;;;;;4.23;100.00;102974.91;5286443;27;20152;-72
2024/01/25 07:37:59;;;;;;;45.95;8.27;;;;;;;4.11;100.00;102976.34;5286234;27;20078;-72
2024/01/25 07:40:30;;;;;;;59.85;10.95;;;;;;;4.10;100.00;102981.75;5286351;27;20027;-73
2024/01/25 07:43:01;;;;;;;56.17;10.48;;;;;;;4.16;100.00;102986.75;5284684;28;20035;-73
2024/01/25 07:45:32;;;;;;;56.38;11.77;;;;;;;4.24;100.00;102983.75;5285300;27;20034;-72
2024/01/25 07:48:03;;;;;;;43.67;9.43;;;;;;;4.33;100.00;102973.53;5286601;27;20684;-72
2024/01/25 07:50:33;;;;;;;57.42;9.68;;;;;;;4.41;100.00;102962.53;5287450;27;20035;-72
2024/01/25 07:53:04;;;;;;;45.83;8.93;;;;;;;4.39;100.00;102965.25;5277764;27;20490;-73
2024/01/25 07:55:34;;;;;;;76.70;12.43;;;;;;;4.51;100.00;102969.09;5286099;27;20022;-73
2024/01/25 07:58:05;;;;;;;45.05;8.13;;;;;;;4.53;100.00;102977.88;5286629;27;20122;-73
2024/01/25 08:00:36;;;;;;;63.85;12.02;;;;;;;4.63;100.00;102981.81;5286035;27;20073;-73
2024/01/25 08:03:06;;;;;;;62.65;13.80;;;;;;;4.76;100.00;102983.84;5279656;27;20610;-73
2024/01/25 08:05:37;;;;;;;64.57;15.25;;;;;;;4.88;100.00;102988.56;5275255;27;20085;-72
2024/01/25 08:08:08;;;;;;;69.13;14.02;;;;;;;5.02;100.00;102980.75;5277048;27;20027;-72
2024/01/25 08:10:38;;;;;;;51.42;12.50;;;;;;;5.05;100.00;102987.72;5286050;27;20034;-72
2024/01/25 08:13:09;;;;;;;55.65;11.38;;;;;;;5.08;100.00;102983.09;5278410;27;20106;-72
2024/01/25 08:15:39;;;;;;;61.17;10.40;;;;;;;5.16;100.00;102980.03;5284868;27;20031;-72
2024/01/25 08:18:11;;;;;;;47.00;10.70;;;;;;;5.25;100.00;102974.25;5285502;27;20035;-72
2024/01/25 08:20:41;;;;;;;63.22;9.63;;;;;;;5.31;100.00;102963.28;5291128;27;20422;-72
2024/01/25 08:23:13;;;;;;;59.38;10.48;;;;;;;5.37;100.00;102962.97;5285353;27;20034;-73
2024/01/25 08:25:43;;;;;;;52.78;11.32;;;;;;;5.42;100.00;102966.25;5273113;27;20031;-72
2024/01/25 08:28:14;;;;;;;57.47;11.02;;;;;;;5.57;100.00;102961.03;5278764;27;20152;-72
2024/01/25 08:30:45;;;;;;;81.57;12.43;;;;;;;5.69;100.00;102961.25;5267921;27;20521;-73
2024/01/25 08:33:15;;;;;;;69.82;11.65;;;;;;;5.86;100.00;102967.44;5277402;27;20039;-73
2024/01/25 08:35:46;;;;;;;60.20;9.95;;;;;;;5.94;100.00;102966.13;5278301;27;20102;-73
2024/01/25 08:38:16;;;;;;;78.18;11.48;;;;;;;6.00;100.00;102975.56;5280396;27;20031;-73
2024/01/25 08:40:47;;;;;;;39.38;8.80;;;;;;;5.99;100.00;102973.88;5281149;27;20038;-73
2024/01/25 08:43:17;;;;;;;42.53;8.82;;;;;;;6.00;100.00;102980.03;5283202;27;20032;-72
2024/01/25 08:45:48;;;;;;;50.00;8.25;;;;;;;6.08;100.00;102975.16;5280648;28;20098;-72
2024/01/25 08:48:18;;;;;;;34.70;7.28;;;;;;;6.21;100.00;102979.69;5286167;27;20026;-72
2024/01/25 08:50:53;;;;;;;57.20;8.48;;;;;;;6.37;100.00;102976.16;5287339;27;20073;-73
2024/01/25 08:53:27;;;;;;;50.57;9.53;;;;;;;6.60;100.00;102988.19;5285997;27;20016;-73
2024/01/25 08:55:57;;;;;;;60.17;10.65;;;;;;;6.75;100.00;102992.66;5288530;27;20541;-73
2024/01/25 08:58:28;;;;;;;50.92;9.93;;;;;;;6.88;100.00;102979.47;5286269;27;20027;-73
2024/01/25 09:00:58;;;;;;;62.53;10.13;;;;;;;7.00;100.00;102987.59;5285981;27;20068;-73
2024/01/25 09:03:29;;;;;;;62.50;10.98;;;;;;;7.06;100.00;102988.19;5286082;27;20020;-73
2024/01/25 09:06:05;;;;;;;57.22;10.80;;;;;;;7.08;100.00;102978.25;5284437;27;20027;-73
2024/01/25 09:08:35;;;;;;;53.92;10.48;;;;;;;7.11;100.00;102976.28;5285530;27;20076;-73
2024/01/25 09:11:05;;;;;;;64.57;11.02;;;;;;;7.10;100.00;102985.25;5287170;27;20031;-73
2024/01/25 09:13:36;;;;;;;60.85;12.05;;;;;;;7.09;100.00;102986.19;5285407;28;20618;-73
2024/01/25 09:16:06;;;;;;;79.55;12.48;;;;;;;7.02;100.00;102987.50;5285087;28;20389;-73
2024/01/25 09:18:37;;;;;;;73.40;11.70;;;;;;;7.09;100.00;102988.00;5284959;27;20408;-73
2024/01/25 09:21:08;;;;;;;66.57;13.63;;;;;;;7.07;100.00;102973.88;5285469;27;20092;-73
2024/01/25 09:23:39;;;;;;;69.07;14.00;;;;;;;7.10;100.00;102973.72;5287277;27;20116;-73
2024/01/25 09:26:10;;;;;;;69.55;14.52;;;;;;;7.02;100.00;102982.16;5285968;27;20020;-73
2024/01/25 09:28:40;;;;;;;83.15;15.05;;;;;;;6.87;100.00;102975.91;5287138;27;20082;-73
2024/01/25 09:31:11;;;;;;;77.10;15.52;;;;;;;6.89;100.00;102986.53;5286497;27;20020;-73
2024/01/25 09:33:41;;;;;;;75.10;16.73;;;;;;;6.90;100.00;102996.22;5302849;27;20080;-73
2024/01/25 09:36:12;;;;;;;73.55;16.02;;;;;;;6.88;100.00;102990.16;5285855;27;20015;-73
2024/01/25 09:38:42;;;;;;;78.53;15.88;;;;;;;6.85;100.00;102990.31;5293585;27;20059;-73
2024/01/25 09:41:14;;;;;;;65.78;14.93;;;;;;;6.81;100.00;102986.94;5296483;27;20022;-73
2024/01/25 09:43:46;;;;;;;61.08;14.35;;;;;;;6.80;100.00;102987.91;5293198;27;20031;-73
2024/01/25 09:46:18;;;;;;;72.70;17.33;;;;;;;6.82;100.00;102995.81;5298877;27;20541;-73
2024/01/25 09:48:49;;;;;;;66.25;16.35;;;;;;;6.77;100.00;102998.75;5296245;27;20035;-73
2024/01/25 09:51:19;;;;;;;70.32;17.02;;;;;;;6.64;100.00;102992.41;5299366;27;20055;-72
2024/01/25 09:53:53;;;;;;;68.95;18.15;;;;;;;6.78;100.00;102995.16;5300067;27;20099;-73
2024/01/25 09:56:25;;;;;;;67.60;17.40;;;;;;;6.91;100.00;102985.47;5298168;27;20028;-73
2024/01/25 09:58:55;;;;;;;63.15;16.48;;;;;;;6.91;100.00;102988.13;5295497;27;20031;-73
2024/01/25 10:01:26;;;;;;;63.20;18.25;;;;;;;7.01;100.00;102981.28;5294846;27;20507;-73
2024/01/25 10:03:57;;;;;;;73.03;18.10;;;;;;;6.91;100.00;102979.28;5288825;27;20026;-73
2024/01/25 10:06:27;;;;;;;69.45;16.92;;;;;;;6.87;100.00;102981.25;5296199;27;21323;-73
2024/01/25 10:08:58;;;;;;;52.63;17.63;;;;;;;6.80;100.00;102979.91;5294406;28;20107;-72
2024/01/25 10:11:35;;;;;;;64.80;18.15;;;;;;;6.74;100.00;102977.59;5292996;28;20504;-73
2024/01/25 10:14:08;;;;;;;65.15;18.77;;;;;;;6.81;100.00;102978.94;5293645;27;20031;-73
2024/01/25 10:16:38;;;;;;;62.78;18.48;;;;;;;6.81;100.00;102978.94;5291768;28;20020;-73
2024/01/25 10:19:09;;;;;;;52.83;18.05;;;;;;;6.84;100.00;102978.78;5285934;27;20049;-73
2024/01/25 10:21:42;;;;;;;57.40;18.13;;;;;;;6.89;100.00;102976.69;5299666;28;20027;-73
2024/01/25 10:24:13;;;;;;;62.72;17.70;;;;;;;6.93;100.00;102969.38;5299590;27;20035;-72
2024/01/25 10:26:43;;;;;;;69.18;19.55;;;;;;;7.03;100.00;102972.34;5287099;28;20037;-73
2024/01/25 10:29:14;;;;;;;76.55;22.55;;;;;;;7.22;100.00;102975.63;5283599;27;20081;-73
2024/01/25 10:31:45;;;;;;;72.65;20.55;;;;;;;7.11;100.00;102970.94;5298128;27;20106;-73
2024/01/25 10:34:16;;;;;;;78.00;22.30;;;;;;;7.07;100.00;102966.72;5290899;28;20118;-73
2024/01/25 10:36:48;;;;;;;75.60;19.98;;;;;;;7.17;100.00;102969.69;5295506;27;20030;-73
2024/01/25 10:39:20;;;;;;;75.22;21.15;;;;;;;7.29;100.00;102968.97;5296985;28;20047;-73
2024/01/25 10:41:52;;;;;;;80.05;20.98;;;;;;;7.28;100.00;102972.59;5294388;27;20038;-73
2024/01/25 10:44:23;;;;;;;80.57;19.92;;;;;;;7.25;100.00;102967.44;5291502;27;20032;-73
2024/01/25 10:46:54;;;;;;;77.25;20.25;;;;;;;7.34;100.00;102963.38;5293918;27;20434;-73
2024/01/25 10:49:26;;;;;;;76.35;19.33;;;;;;;7.35;100.00;102949.06;5286912;28;20388;-73
2024/01/25 10:51:56;;;;;;;76.95;19.92;;;;;;;7.35;100.00;102954.38;5296473;28;20620;-73
2024/01/25 10:54:28;;;;;;;69.80;20.05;;;;;;;7.38;100.00;102944.38;5298128;27;20024;-74
2024/01/25 10:56:59;;;;;;;72.43;21.05;;;;;;;7.64;100.00;102942.78;5297530;27;20392;-73
2024/01/25 10:59:30;;;;;;;91.00;21.73;;;;;;;7.66;100.00;102934.66;5302505;27;20027;-73
2024/01/25 11:02:01;;;;;;;96.13;23.02;;;;;;;7.79;100.00;102932.94;5297547;27;20055;-73
2024/01/25 11:04:32;;;;;;;83.95;21.38;;;;;;;7.86;100.00;102920.03;5302704;27;20024;-73
2024/01/25 11:07:09;;;;;;;83.25;21.27;;;;;;;7.83;100.00;102915.75;5302214;27;20030;-73
2024/01/25 11:09:40;;;;;;;88.63;21.42;;;;;;;7.97;100.00;102918.38;5293428;27;20027;-73
2024/01/25 11:12:13;;;;;;;80.60;21.10;;;;;;;7.99;100.00;102910.28;5299580;27;20040;-73
2024/01/25 11:14:44;;;;;;;68.75;20.00;;;;;;;8.07;100.00;102907.09;5304315;27;20119;-73
2024/01/25 11:17:22;;;;;;;67.97;19.33;;;;;;;8.14;100.00;102903.06;5300281;27;20528;-73
2024/01/25 11:19:53;;;;;;;74.28;19.88;;;;;;;8.10;100.00;102898.88;5297794;27;20031;-73
2024/01/25 11:22:34;;;;;;;80.35;20.13;;;;;;;8.01;100.00;102890.50;5300560;27;20019;-73
2024/01/25 11:25:20;;;;;;;73.72;19.77;;;;;;;8.12;100.00;102883.59;5291048;27;20042;-73
2024/01/25 11:27:50;;;;;;;74.43;18.65;;;;;;;8.19;100.00;102883.09;5293483;27;20096;-73
2024/01/25 11:30:21;;;;;;;77.68;18.77;;;;;;;8.35;100.00;102884.75;5296862;27;20023;-73